sensor_id;sensor_type;location;lat;lon;timestamp;P1;durP1;ratioP1;P2;durP2;ratioP2
54143;SDS011;40050;47.324;18.792;2023-04-24T00:01:45;12.64;;;7.88;;
54143;SDS011;40050;47.324;18.792;2023-04-24T00:03:46;13.82;;;8.68;;
54143;SDS011;40050;47.324;18.792;2023-04-24T00:05:48;13.70;;;8.48;;
54143;SDS011;40050;47.324;18.792;2023-04-24T00:07:49;12.12;;;8.38;;
54143;SDS011;40050;47.324;18.792;2023-04-24T00:09:50;11.61;;;8.18;;
54143;SDS011;40050;47.324;18.792;2023-04-24T00:11:50;11.51;;;8.08;;
54143;SDS011;40050;47.324;18.792;2023-04-24T00:13:51;18.27;;;9.18;;
54143;SDS011;40050;47.324;18.792;2023-04-24T00:15:52;12.41;;;8.38;;
54143;SDS011;40050;47.324;18.792;2023-04-24T00:17:53;12.79;;;8.38;;
54143;SDS011;40050;47.324;18.792;2023-04-24T00:19:54;12.41;;;8.38;;
54143;SDS011;40050;47.324;18.792;2023-04-24T00:21:55;13.97;;;8.98;;
54143;SDS011;40050;47.324;18.792;2023-04-24T00:23:56;12.89;;;9.28;;
54143;SDS011;40050;47.324;18.792;2023-04-24T00:25:57;13.28;;;9.47;;
54143;SDS011;40050;47.324;18.792;2023-04-24T00:27:58;14.56;;;9.08;;
54143;SDS011;40050;47.324;18.792;2023-04-24T00:29:59;14.83;;;9.57;;
54143;SDS011;40050;47.324;18.792;2023-04-24T00:32:00;14.93;;;9.37;;
54143;SDS011;40050;47.324;18.792;2023-04-24T00:34:01;12.29;;;9.17;;
54143;SDS011;40050;47.324;18.792;2023-04-24T00:36:02;13.65;;;9.37;;
54143;SDS011;40050;47.324;18.792;2023-04-24T00:38:03;13.92;;;9.87;;
54143;SDS011;40050;47.324;18.792;2023-04-24T00:40:04;14.22;;;9.87;;
54143;SDS011;40050;47.324;18.792;2023-04-24T00:42:04;14.61;;;8.87;;
54143;SDS011;40050;47.324;18.792;2023-04-24T00:44:05;11.68;;;8.87;;
54143;SDS011;40050;47.324;18.792;2023-04-24T00:46:07;16.83;;;9.77;;
54143;SDS011;40050;47.324;18.792;2023-04-24T00:48:09;16.71;;;10.16;;
54143;SDS011;40050;47.324;18.792;2023-04-24T00:50:10;15.89;;;10.26;;
54143;SDS011;40050;47.324;18.792;2023-04-24T00:52:11;19.31;;;9.65;;
54143;SDS011;40050;47.324;18.792;2023-04-24T00:54:12;17.36;;;9.95;;
54143;SDS011;40050;47.324;18.792;2023-04-24T00:56:13;13.95;;;10.04;;
54143;SDS011;40050;47.324;18.792;2023-04-24T00:58:15;17.54;;;10.23;;
54143;SDS011;40050;47.324;18.792;2023-04-24T01:00:16;14.52;;;10.72;;
54143;SDS011;40050;47.324;18.792;2023-04-24T01:02:17;17.55;;;10.42;;
54143;SDS011;40050;47.324;18.792;2023-04-24T01:04:21;17.16;;;11.31;;
54143;SDS011;40050;47.324;18.792;2023-04-24T01:06:23;16.19;;;11.59;;
54143;SDS011;40050;47.324;18.792;2023-04-24T01:08:24;15.26;;;11.59;;
54143;SDS011;40050;47.324;18.792;2023-04-24T01:10:25;16.75;;;11.89;;
54143;SDS011;40050;47.324;18.792;2023-04-24T01:12:25;17.52;;;11.69;;
54143;SDS011;40050;47.324;18.792;2023-04-24T01:14:27;15.71;;;11.77;;
54143;SDS011;40050;47.324;18.792;2023-04-24T01:16:28;15.55;;;10.69;;
54143;SDS011;40050;47.324;18.792;2023-04-24T01:18:29;14.88;;;9.79;;
54143;SDS011;40050;47.324;18.792;2023-04-24T01:20:30;13.13;;;9.31;;
54143;SDS011;40050;47.324;18.792;2023-04-24T01:22:34;13.62;;;9.41;;
54143;SDS011;40050;47.324;18.792;2023-04-24T01:24:35;12.70;;;8.82;;
54143;SDS011;40050;47.324;18.792;2023-04-24T01:26:36;13.55;;;9.41;;
54143;SDS011;40050;47.324;18.792;2023-04-24T01:28:37;14.68;;;9.41;;
54143;SDS011;40050;47.324;18.792;2023-04-24T01:30:38;12.62;;;9.71;;
54143;SDS011;40050;47.324;18.792;2023-04-24T01:32:40;12.53;;;9.32;;
54143;SDS011;40050;47.324;18.792;2023-04-24T01:34:41;13.11;;;10.11;;
54143;SDS011;40050;47.324;18.792;2023-04-24T01:36:42;13.39;;;9.72;;
54143;SDS011;40050;47.324;18.792;2023-04-24T01:38:43;10.82;;;9.12;;
54143;SDS011;40050;47.324;18.792;2023-04-24T01:40:44;13.03;;;9.42;;
54143;SDS011;40050;47.324;18.792;2023-04-24T01:42:45;13.50;;;9.32;;
54143;SDS011;40050;47.324;18.792;2023-04-24T01:44:46;12.07;;;9.22;;
54143;SDS011;40050;47.324;18.792;2023-04-24T01:46:47;11.81;;;8.93;;
54143;SDS011;40050;47.324;18.792;2023-04-24T01:48:48;11.33;;;8.63;;
54143;SDS011;40050;47.324;18.792;2023-04-24T01:50:49;11.82;;;8.53;;
54143;SDS011;40050;47.324;18.792;2023-04-24T01:52:50;10.21;;;8.93;;
54143;SDS011;40050;47.324;18.792;2023-04-24T01:54:51;13.91;;;8.53;;
54143;SDS011;40050;47.324;18.792;2023-04-24T01:56:53;12.45;;;9.02;;
54143;SDS011;40050;47.324;18.792;2023-04-24T01:58:54;11.41;;;8.93;;
54143;SDS011;40050;47.324;18.792;2023-04-24T02:00:58;13.84;;;9.23;;
54143;SDS011;40050;47.324;18.792;2023-04-24T02:02:56;13.63;;;8.73;;
54143;SDS011;40050;47.324;18.792;2023-04-24T02:04:57;11.55;;;8.83;;
54143;SDS011;40050;47.324;18.792;2023-04-24T02:06:58;9.73;;;8.54;;
54143;SDS011;40050;47.324;18.792;2023-04-24T02:08:59;12.85;;;8.93;;
54143;SDS011;40050;47.324;18.792;2023-04-24T02:10:59;13.06;;;8.93;;
54143;SDS011;40050;47.324;18.792;2023-04-24T02:13:01;12.30;;;8.34;;
54143;SDS011;40050;47.324;18.792;2023-04-24T02:15:02;10.10;;;7.94;;
54143;SDS011;40050;47.324;18.792;2023-04-24T02:17:03;11.43;;;8.73;;
54143;SDS011;40050;47.324;18.792;2023-04-24T02:19:03;11.67;;;9.22;;
54143;SDS011;40050;47.324;18.792;2023-04-24T02:21:04;12.05;;;9.12;;
54143;SDS011;40050;47.324;18.792;2023-04-24T02:23:05;11.70;;;8.83;;
54143;SDS011;40050;47.324;18.792;2023-04-24T02:25:06;13.06;;;9.03;;
54143;SDS011;40050;47.324;18.792;2023-04-24T02:27:07;12.14;;;8.74;;
54143;SDS011;40050;47.324;18.792;2023-04-24T02:29:08;11.21;;;7.65;;
54143;SDS011;40050;47.324;18.792;2023-04-24T02:31:09;12.18;;;7.75;;
54143;SDS011;40050;47.324;18.792;2023-04-24T02:33:10;10.93;;;7.25;;
54143;SDS011;40050;47.324;18.792;2023-04-24T02:35:11;12.76;;;7.65;;
54143;SDS011;40050;47.324;18.792;2023-04-24T02:37:12;9.89;;;7.55;;
54143;SDS011;40050;47.324;18.792;2023-04-24T02:39:13;12.08;;;8.15;;
54143;SDS011;40050;47.324;18.792;2023-04-24T02:41:14;11.71;;;8.15;;
54143;SDS011;40050;47.324;18.792;2023-04-24T02:43:14;11.32;;;8.45;;
54143;SDS011;40050;47.324;18.792;2023-04-24T02:45:15;13.23;;;9.34;;
54143;SDS011;40050;47.324;18.792;2023-04-24T02:47:16;13.33;;;8.65;;
54143;SDS011;40050;47.324;18.792;2023-04-24T02:49:17;11.88;;;9.14;;
54143;SDS011;40050;47.324;18.792;2023-04-24T02:51:18;10.83;;;8.54;;
54143;SDS011;40050;47.324;18.792;2023-04-24T02:53:19;13.80;;;9.04;;
54143;SDS011;40050;47.324;18.792;2023-04-24T02:55:20;13.80;;;10.13;;
54143;SDS011;40050;47.324;18.792;2023-04-24T02:57:21;15.63;;;10.14;;
54143;SDS011;40050;47.324;18.792;2023-04-24T02:59:22;16.69;;;10.44;;
54143;SDS011;40050;47.324;18.792;2023-04-24T03:01:25;12.65;;;9.54;;
54143;SDS011;40050;47.324;18.792;2023-04-24T03:03:26;14.17;;;10.03;;
54143;SDS011;40050;47.324;18.792;2023-04-24T03:05:27;11.98;;;9.44;;
54143;SDS011;40050;47.324;18.792;2023-04-24T03:07:28;16.10;;;9.24;;
54143;SDS011;40050;47.324;18.792;2023-04-24T03:09:29;11.72;;;9.44;;
54143;SDS011;40050;47.324;18.792;2023-04-24T03:11:30;12.97;;;9.05;;
54143;SDS011;40050;47.324;18.792;2023-04-24T03:13:31;14.22;;;9.54;;
54143;SDS011;40050;47.324;18.792;2023-04-24T03:15:32;14.22;;;9.25;;
54143;SDS011;40050;47.324;18.792;2023-04-24T03:17:33;12.02;;;8.95;;
54143;SDS011;40050;47.324;18.792;2023-04-24T03:19:34;13.28;;;8.25;;
54143;SDS011;40050;47.324;18.792;2023-04-24T03:21:35;11.74;;;8.65;;
54143;SDS011;40050;47.324;18.792;2023-04-24T03:23:36;12.22;;;9.15;;
54143;SDS011;40050;47.324;18.792;2023-04-24T03:25:37;12.31;;;8.35;;
54143;SDS011;40050;47.324;18.792;2023-04-24T03:27:38;12.02;;;8.35;;
54143;SDS011;40050;47.324;18.792;2023-04-24T03:29:39;14.04;;;8.65;;
54143;SDS011;40050;47.324;18.792;2023-04-24T03:31:40;10.77;;;8.55;;
54143;SDS011;40050;47.324;18.792;2023-04-24T03:33:41;11.07;;;8.35;;
54143;SDS011;40050;47.324;18.792;2023-04-24T03:35:41;12.51;;;8.95;;
54143;SDS011;40050;47.324;18.792;2023-04-24T03:37:42;13.65;;;8.35;;
54143;SDS011;40050;47.324;18.792;2023-04-24T03:39:43;12.97;;;8.75;;
54143;SDS011;40050;47.324;18.792;2023-04-24T03:41:44;13.83;;;8.65;;
54143;SDS011;40050;47.324;18.792;2023-04-24T03:43:45;13.25;;;8.15;;
54143;SDS011;40050;47.324;18.792;2023-04-24T03:45:46;11.60;;;8.84;;
54143;SDS011;40050;47.324;18.792;2023-04-24T03:47:47;16.58;;;8.64;;
54143;SDS011;40050;47.324;18.792;2023-04-24T03:49:48;12.83;;;9.04;;
54143;SDS011;40050;47.324;18.792;2023-04-24T03:51:48;14.37;;;8.84;;
54143;SDS011;40050;47.324;18.792;2023-04-24T03:53:49;11.78;;;8.84;;
54143;SDS011;40050;47.324;18.792;2023-04-24T03:55:50;13.09;;;8.44;;
54143;SDS011;40050;47.324;18.792;2023-04-24T03:57:51;16.35;;;9.04;;
54143;SDS011;40050;47.324;18.792;2023-04-24T03:59:52;12.63;;;8.34;;
54143;SDS011;40050;47.324;18.792;2023-04-24T04:01:53;13.20;;;8.94;;
54143;SDS011;40050;47.324;18.792;2023-04-24T04:03:54;10.82;;;8.74;;
54143;SDS011;40050;47.324;18.792;2023-04-24T04:05:55;14.51;;;8.84;;
54143;SDS011;40050;47.324;18.792;2023-04-24T04:07:56;13.36;;;8.73;;
54143;SDS011;40050;47.324;18.792;2023-04-24T04:09:57;14.32;;;9.13;;
54143;SDS011;40050;47.324;18.792;2023-04-24T04:11:58;13.19;;;8.44;;
54143;SDS011;40050;47.324;18.792;2023-04-24T04:13:59;14.22;;;9.23;;
54143;SDS011;40050;47.324;18.792;2023-04-24T04:16:00;11.92;;;8.73;;
54143;SDS011;40050;47.324;18.792;2023-04-24T04:18:00;12.97;;;8.14;;
54143;SDS011;40050;47.324;18.792;2023-04-24T04:20:01;12.97;;;9.03;;
54143;SDS011;40050;47.324;18.792;2023-04-24T04:22:02;12.59;;;8.14;;
54143;SDS011;40050;47.324;18.792;2023-04-24T04:24:03;14.23;;;8.74;;
54143;SDS011;40050;47.324;18.792;2023-04-24T04:26:04;15.77;;;8.74;;
54143;SDS011;40050;47.324;18.792;2023-04-24T04:28:05;14.24;;;8.64;;
54143;SDS011;40050;47.324;18.792;2023-04-24T04:30:07;12.51;;;8.84;;
54143;SDS011;40050;47.324;18.792;2023-04-24T04:32:07;13.94;;;8.44;;
54143;SDS011;40050;47.324;18.792;2023-04-24T04:34:08;14.33;;;9.13;;
54143;SDS011;40050;47.324;18.792;2023-04-24T04:36:09;14.01;;;9.23;;
54143;SDS011;40050;47.324;18.792;2023-04-24T04:38:10;13.81;;;8.73;;
54143;SDS011;40050;47.324;18.792;2023-04-24T04:40:11;15.72;;;9.43;;
54143;SDS011;40050;47.324;18.792;2023-04-24T04:42:12;13.14;;;9.33;;
54143;SDS011;40050;47.324;18.792;2023-04-24T04:44:12;12.10;;;8.73;;
54143;SDS011;40050;47.324;18.792;2023-04-24T04:46:13;14.28;;;9.33;;
54143;SDS011;40050;47.324;18.792;2023-04-24T04:48:14;12.83;;;9.62;;
54143;SDS011;40050;47.324;18.792;2023-04-24T04:50:15;13.03;;;8.93;;
54143;SDS011;40050;47.324;18.792;2023-04-24T04:52:17;14.65;;;9.82;;
54143;SDS011;40050;47.324;18.792;2023-04-24T04:54:17;13.12;;;9.22;;
54143;SDS011;40050;47.324;18.792;2023-04-24T04:56:18;14.07;;;9.42;;
54143;SDS011;40050;47.324;18.792;2023-04-24T04:58:19;14.83;;;9.12;;
54143;SDS011;40050;47.324;18.792;2023-04-24T05:00:20;12.82;;;9.72;;
54143;SDS011;40050;47.324;18.792;2023-04-24T05:02:21;12.36;;;9.52;;
54143;SDS011;40050;47.324;18.792;2023-04-24T05:04:22;16.36;;;9.32;;
54143;SDS011;40050;47.324;18.792;2023-04-24T05:06:23;15.42;;;9.62;;
54143;SDS011;40050;47.324;18.792;2023-04-24T05:08:24;11.60;;;8.92;;
54143;SDS011;40050;47.324;18.792;2023-04-24T05:10:24;13.23;;;9.13;;
54143;SDS011;40050;47.324;18.792;2023-04-24T05:12:25;13.49;;;9.22;;
54143;SDS011;40050;47.324;18.792;2023-04-24T05:14:26;12.94;;;9.42;;
54143;SDS011;40050;47.324;18.792;2023-04-24T05:16:28;13.20;;;9.12;;
54143;SDS011;40050;47.324;18.792;2023-04-24T05:18:29;11.38;;;9.12;;
54143;SDS011;40050;47.324;18.792;2023-04-24T05:20:30;11.84;;;9.71;;
54143;SDS011;40050;47.324;18.792;2023-04-24T05:22:31;14.57;;;9.71;;
54143;SDS011;40050;47.324;18.792;2023-04-24T05:24:35;12.49;;;9.61;;
54143;SDS011;40050;47.324;18.792;2023-04-24T05:26:32;13.40;;;9.40;;
54143;SDS011;40050;47.324;18.792;2023-04-24T05:28:33;14.14;;;9.70;;
54143;SDS011;40050;47.324;18.792;2023-04-24T05:30:35;17.00;;;9.70;;
54143;SDS011;40050;47.324;18.792;2023-04-24T05:32:36;13.77;;;9.60;;
54143;SDS011;40050;47.324;18.792;2023-04-24T05:34:36;14.89;;;9.40;;
54143;SDS011;40050;47.324;18.792;2023-04-24T05:36:38;14.41;;;10.09;;
54143;SDS011;40050;47.324;18.792;2023-04-24T05:38:38;14.41;;;9.79;;
54143;SDS011;40050;47.324;18.792;2023-04-24T05:40:40;12.81;;;9.00;;
54143;SDS011;40050;47.324;18.792;2023-04-24T05:42:41;16.29;;;9.60;;
54143;SDS011;40050;47.324;18.792;2023-04-24T05:44:42;16.87;;;9.60;;
54143;SDS011;40050;47.324;18.792;2023-04-24T05:46:43;15.60;;;10.00;;
54143;SDS011;40050;47.324;18.792;2023-04-24T05:48:43;16.29;;;9.21;;
54143;SDS011;40050;47.324;18.792;2023-04-24T05:50:44;14.58;;;9.11;;
54143;SDS011;40050;47.324;18.792;2023-04-24T05:52:45;14.38;;;9.71;;
54143;SDS011;40050;47.324;18.792;2023-04-24T05:54:46;14.17;;;9.70;;
54143;SDS011;40050;47.324;18.792;2023-04-24T05:56:48;18.47;;;10.29;;
54143;SDS011;40050;47.324;18.792;2023-04-24T05:58:48;16.26;;;10.28;;
54143;SDS011;40050;47.324;18.792;2023-04-24T06:00:49;13.92;;;9.79;;
54143;SDS011;40050;47.324;18.792;2023-04-24T06:02:50;13.82;;;9.89;;
54143;SDS011;40050;47.324;18.792;2023-04-24T06:04:51;15.10;;;10.77;;
54143;SDS011;40050;47.324;18.792;2023-04-24T06:06:52;16.15;;;10.58;;
54143;SDS011;40050;47.324;18.792;2023-04-24T06:08:53;14.92;;;9.98;;
54143;SDS011;40050;47.324;18.792;2023-04-24T06:10:54;16.22;;;10.28;;
54143;SDS011;40050;47.324;18.792;2023-04-24T06:12:56;14.92;;;10.47;;
54143;SDS011;40050;47.324;18.792;2023-04-24T06:14:57;15.01;;;10.08;;
54143;SDS011;40050;47.324;18.792;2023-04-24T06:16:58;14.26;;;10.87;;
54143;SDS011;40050;47.324;18.792;2023-04-24T06:18:59;12.64;;;10.27;;
54143;SDS011;40050;47.324;18.792;2023-04-24T06:21:00;15.72;;;11.45;;
54143;SDS011;40050;47.324;18.792;2023-04-24T06:23:01;12.73;;;10.47;;
54143;SDS011;40050;47.324;18.792;2023-04-24T06:25:01;14.58;;;9.97;;
54143;SDS011;40050;47.324;18.792;2023-04-24T06:27:02;13.85;;;10.66;;
54143;SDS011;40050;47.324;18.792;2023-04-24T06:29:03;17.16;;;10.46;;
54143;SDS011;40050;47.324;18.792;2023-04-24T06:31:04;16.49;;;10.67;;
54143;SDS011;40050;47.324;18.792;2023-04-24T06:33:14;15.10;;;10.47;;
54143;SDS011;40050;47.324;18.792;2023-04-24T06:35:07;17.25;;;11.36;;
54143;SDS011;40050;47.324;18.792;2023-04-24T06:37:11;17.14;;;11.36;;
54143;SDS011;40050;47.324;18.792;2023-04-24T06:39:09;17.38;;;10.96;;
54143;SDS011;40050;47.324;18.792;2023-04-24T06:41:10;14.57;;;10.96;;
54143;SDS011;40050;47.324;18.792;2023-04-24T06:43:10;17.77;;;11.35;;
54143;SDS011;40050;47.324;18.792;2023-04-24T06:45:11;17.03;;;11.55;;
54143;SDS011;40050;47.324;18.792;2023-04-24T06:47:12;13.90;;;11.25;;
54143;SDS011;40050;47.324;18.792;2023-04-24T06:49:13;17.07;;;10.66;;
54143;SDS011;40050;47.324;18.792;2023-04-24T06:51:14;15.11;;;10.44;;
54143;SDS011;40050;47.324;18.792;2023-04-24T06:53:15;17.46;;;11.92;;
54143;SDS011;40050;47.324;18.792;2023-04-24T06:55:16;19.37;;;12.21;;
54143;SDS011;40050;47.324;18.792;2023-04-24T06:57:17;15.73;;;11.32;;
54143;SDS011;40050;47.324;18.792;2023-04-24T06:59:18;15.70;;;11.31;;
54143;SDS011;40050;47.324;18.792;2023-04-24T07:01:19;16.25;;;11.21;;
54143;SDS011;40050;47.324;18.792;2023-04-24T07:03:20;15.20;;;11.01;;
54143;SDS011;40050;47.324;18.792;2023-04-24T07:05:21;16.61;;;12.00;;
54143;SDS011;40050;47.324;18.792;2023-04-24T07:07:22;17.80;;;11.40;;
54143;SDS011;40050;47.324;18.792;2023-04-24T07:09:23;14.77;;;11.11;;
54143;SDS011;40050;47.324;18.792;2023-04-24T07:11:24;15.13;;;10.91;;
54143;SDS011;40050;47.324;18.792;2023-04-24T07:13:24;13.94;;;10.72;;
54143;SDS011;40050;47.324;18.792;2023-04-24T07:15:25;13.58;;;11.21;;
54143;SDS011;40050;47.324;18.792;2023-04-24T07:17:26;14.57;;;11.28;;
54143;SDS011;40050;47.324;18.792;2023-04-24T07:19:27;14.47;;;11.18;;
54143;SDS011;40050;47.324;18.792;2023-04-24T07:21:28;12.98;;;10.61;;
54143;SDS011;40050;47.324;18.792;2023-04-24T07:23:29;15.14;;;11.09;;
54143;SDS011;40050;47.324;18.792;2023-04-24T07:25:30;14.38;;;10.62;;
54143;SDS011;40050;47.324;18.792;2023-04-24T07:27:31;16.11;;;10.45;;
54143;SDS011;40050;47.324;18.792;2023-04-24T07:29:32;15.00;;;10.95;;
54143;SDS011;40050;47.324;18.792;2023-04-24T07:31:33;15.43;;;10.17;;
54143;SDS011;40050;47.324;18.792;2023-04-24T07:33:34;15.80;;;10.76;;
54143;SDS011;40050;47.324;18.792;2023-04-24T07:35:35;15.37;;;10.65;;
54143;SDS011;40050;47.324;18.792;2023-04-24T07:37:36;14.00;;;10.73;;
54143;SDS011;40050;47.324;18.792;2023-04-24T07:39:37;16.64;;;11.35;;
54143;SDS011;40050;47.324;18.792;2023-04-24T07:41:38;16.18;;;11.75;;
54143;SDS011;40050;47.324;18.792;2023-04-24T07:43:39;18.25;;;11.45;;
54143;SDS011;40050;47.324;18.792;2023-04-24T07:45:40;18.53;;;11.65;;
54143;SDS011;40050;47.324;18.792;2023-04-24T07:47:41;18.14;;;12.22;;
54143;SDS011;40050;47.324;18.792;2023-04-24T07:49:42;19.12;;;12.71;;
54143;SDS011;40050;47.324;18.792;2023-04-24T07:51:42;17.10;;;11.92;;
54143;SDS011;40050;47.324;18.792;2023-04-24T07:53:43;19.59;;;11.82;;
54143;SDS011;40050;47.324;18.792;2023-04-24T07:55:44;17.34;;;12.70;;
54143;SDS011;40050;47.324;18.792;2023-04-24T07:57:45;15.37;;;11.04;;
54143;SDS011;40050;47.324;18.792;2023-04-24T07:59:46;15.83;;;10.65;;
54143;SDS011;40050;47.324;18.792;2023-04-24T08:01:47;16.62;;;11.23;;
54143;SDS011;40050;47.324;18.792;2023-04-24T08:03:48;16.38;;;12.23;;
54143;SDS011;40050;47.324;18.792;2023-04-24T08:05:49;17.13;;;11.54;;
54143;SDS011;40050;47.324;18.792;2023-04-24T08:07:50;16.23;;;11.44;;
54143;SDS011;40050;47.324;18.792;2023-04-24T08:09:51;14.73;;;10.85;;
54143;SDS011;40050;47.324;18.792;2023-04-24T08:11:52;17.34;;;11.44;;
54143;SDS011;40050;47.324;18.792;2023-04-24T08:13:53;15.96;;;11.64;;
54143;SDS011;40050;47.324;18.792;2023-04-24T08:15:53;17.00;;;11.65;;
54143;SDS011;40050;47.324;18.792;2023-04-24T08:17:54;18.43;;;11.65;;
54143;SDS011;40050;47.324;18.792;2023-04-24T08:19:55;17.93;;;11.45;;
54143;SDS011;40050;47.324;18.792;2023-04-24T08:21:56;15.11;;;11.56;;
54143;SDS011;40050;47.324;18.792;2023-04-24T08:23:57;17.66;;;12.08;;
54143;SDS011;40050;47.324;18.792;2023-04-24T08:25:58;17.14;;;11.48;;
54143;SDS011;40050;47.324;18.792;2023-04-24T08:27:59;16.21;;;11.87;;
54143;SDS011;40050;47.324;18.792;2023-04-24T08:30:00;15.31;;;10.40;;
54143;SDS011;40050;47.324;18.792;2023-04-24T08:32:01;17.95;;;10.32;;
54143;SDS011;40050;47.324;18.792;2023-04-24T08:34:04;15.76;;;10.72;;
54143;SDS011;40050;47.324;18.792;2023-04-24T08:36:07;14.02;;;10.72;;
54143;SDS011;40050;47.324;18.792;2023-04-24T08:38:07;15.46;;;11.02;;
54143;SDS011;40050;47.324;18.792;2023-04-24T08:40:15;13.64;;;10.62;;
54143;SDS011;40050;47.324;18.792;2023-04-24T08:42:11;16.33;;;10.82;;
54143;SDS011;40050;47.324;18.792;2023-04-24T08:44:13;16.45;;;10.33;;
54143;SDS011;40050;47.324;18.792;2023-04-24T08:46:13;18.05;;;10.72;;
54143;SDS011;40050;47.324;18.792;2023-04-24T08:48:15;14.08;;;11.03;;
54143;SDS011;40050;47.324;18.792;2023-04-24T08:50:16;13.21;;;10.23;;
54143;SDS011;40050;47.324;18.792;2023-04-24T08:52:17;14.63;;;11.12;;
54143;SDS011;40050;47.324;18.792;2023-04-24T08:54:18;13.79;;;10.13;;
54143;SDS011;40050;47.324;18.792;2023-04-24T08:56:19;13.71;;;9.94;;
54143;SDS011;40050;47.324;18.792;2023-04-24T08:58:21;13.70;;;9.75;;
54143;SDS011;40050;47.324;18.792;2023-04-24T09:00:22;12.41;;;8.96;;
54143;SDS011;40050;47.324;18.792;2023-04-24T09:02:25;11.83;;;8.66;;
54143;SDS011;40050;47.324;18.792;2023-04-24T09:04:26;12.73;;;9.07;;
54143;SDS011;40050;47.324;18.792;2023-04-24T09:06:28;13.42;;;8.57;;
54143;SDS011;40050;47.324;18.792;2023-04-24T09:08:30;13.55;;;8.87;;
54143;SDS011;40050;47.324;18.792;2023-04-24T09:10:32;12.18;;;9.17;;
54143;SDS011;40050;47.324;18.792;2023-04-24T09:12:34;13.82;;;9.77;;
54143;SDS011;40050;47.324;18.792;2023-04-24T09:14:34;14.37;;;9.66;;
54143;SDS011;40050;47.324;18.792;2023-04-24T09:16:35;16.93;;;9.87;;
54143;SDS011;40050;47.324;18.792;2023-04-24T09:18:36;14.91;;;10.57;;
54143;SDS011;40050;47.324;18.792;2023-04-24T09:20:56;15.85;;;10.36;;
54143;SDS011;40050;47.324;18.792;2023-04-24T09:22:40;16.67;;;10.07;;
54143;SDS011;40050;47.324;18.792;2023-04-24T09:24:45;17.91;;;11.46;;
54143;SDS011;40050;47.324;18.792;2023-04-24T09:26:46;15.85;;;10.96;;
54143;SDS011;40050;47.324;18.792;2023-04-24T09:28:48;17.49;;;11.06;;
54143;SDS011;40050;47.324;18.792;2023-04-24T09:31:14;16.71;;;11.06;;
54143;SDS011;40050;47.324;18.792;2023-04-24T09:33:09;16.32;;;10.96;;
54143;SDS011;40050;47.324;18.792;2023-04-24T09:35:09;15.63;;;11.16;;
54143;SDS011;40050;47.324;18.792;2023-04-24T09:37:01;14.28;;;11.06;;
54143;SDS011;40050;47.324;18.792;2023-04-24T09:39:09;19.02;;;11.85;;
54143;SDS011;40050;47.324;18.792;2023-04-24T09:41:13;17.62;;;11.95;;
54143;SDS011;40050;47.324;18.792;2023-04-24T09:43:14;15.40;;;11.75;;
54143;SDS011;40050;47.324;18.792;2023-04-24T09:45:16;16.29;;;10.96;;
54143;SDS011;40050;47.324;18.792;2023-04-24T09:47:20;15.05;;;10.96;;
54143;SDS011;40050;47.324;18.792;2023-04-24T09:49:27;15.05;;;10.86;;
54143;SDS011;40050;47.324;18.792;2023-04-24T09:51:44;13.40;;;10.06;;
54143;SDS011;40050;47.324;18.792;2023-04-24T09:53:32;14.82;;;9.07;;
54143;SDS011;40050;47.324;18.792;2023-04-24T09:55:33;13.52;;;9.17;;
54143;SDS011;40050;47.324;18.792;2023-04-24T09:57:34;14.63;;;8.87;;
54143;SDS011;40050;47.324;18.792;2023-04-24T09:59:35;11.72;;;8.68;;
54143;SDS011;40050;47.324;18.792;2023-04-24T10:01:38;14.65;;;8.88;;
54143;SDS011;40050;47.324;18.792;2023-04-24T10:03:37;12.28;;;9.37;;
54143;SDS011;40050;47.324;18.792;2023-04-24T10:05:42;14.23;;;9.27;;
54143;SDS011;40050;47.324;18.792;2023-04-24T10:07:45;12.68;;;8.87;;
54143;SDS011;40050;47.324;18.792;2023-04-24T10:09:47;13.26;;;9.47;;
54143;SDS011;40050;47.324;18.792;2023-04-24T10:11:49;12.38;;;8.87;;
54143;SDS011;40050;47.324;18.792;2023-04-24T10:13:49;12.87;;;9.57;;
54143;SDS011;40050;47.324;18.792;2023-04-24T10:15:50;12.58;;;9.47;;
54143;SDS011;40050;47.324;18.792;2023-04-24T10:17:52;14.34;;;9.37;;
54143;SDS011;40050;47.324;18.792;2023-04-24T10:19:56;14.14;;;9.37;;
54143;SDS011;40050;47.324;18.792;2023-04-24T10:21:57;13.47;;;9.47;;
54143;SDS011;40050;47.324;18.792;2023-04-24T10:23:58;12.53;;;9.28;;
54143;SDS011;40050;47.324;18.792;2023-04-24T10:26:01;11.55;;;8.28;;
54143;SDS011;40050;47.324;18.792;2023-04-24T10:28:03;13.90;;;8.18;;
54143;SDS011;40050;47.324;18.792;2023-04-24T10:30:07;11.18;;;7.78;;
54143;SDS011;40050;47.324;18.792;2023-04-24T10:32:07;10.13;;;7.09;;
54143;SDS011;40050;47.324;18.792;2023-04-24T10:34:09;8.57;;;5.49;;
54143;SDS011;40050;47.324;18.792;2023-04-24T10:36:13;8.78;;;5.99;;
54143;SDS011;40050;47.324;18.792;2023-04-24T10:38:22;10.35;;;6.19;;
54143;SDS011;40050;47.324;18.792;2023-04-24T10:40:25;8.19;;;4.79;;
54143;SDS011;40050;47.324;18.792;2023-04-24T10:42:21;6.62;;;4.00;;
54143;SDS011;40050;47.324;18.792;2023-04-24T10:44:44;5.54;;;3.50;;
54143;SDS011;40050;47.324;18.792;2023-04-24T10:46:52;6.75;;;3.30;;
54143;SDS011;40050;47.324;18.792;2023-04-24T10:49:04;6.15;;;3.40;;
54143;SDS011;40050;47.324;18.792;2023-04-24T10:53:58;7.25;;;3.70;;
54143;SDS011;40050;47.324;18.792;2023-04-24T10:56:15;6.95;;;3.50;;
54143;SDS011;40050;47.324;18.792;2023-04-24T10:58:51;5.07;;;3.10;;
54143;SDS011;40050;47.324;18.792;2023-04-24T11:00:58;5.96;;;3.50;;
54143;SDS011;40050;47.324;18.792;2023-04-24T11:03:03;5.47;;;3.40;;
54143;SDS011;40050;47.324;18.792;2023-04-24T11:05:04;6.45;;;3.70;;
54143;SDS011;40050;47.324;18.792;2023-04-24T11:07:05;4.77;;;3.40;;
54143;SDS011;40050;47.324;18.792;2023-04-24T11:09:10;6.06;;;3.20;;
54143;SDS011;40050;47.324;18.792;2023-04-24T11:11:24;4.77;;;3.10;;
54143;SDS011;40050;47.324;18.792;2023-04-24T11:14:08;5.86;;;3.00;;
54143;SDS011;40050;47.324;18.792;2023-04-24T11:15:35;4.87;;;3.30;;
54143;SDS011;40050;47.324;18.792;2023-04-24T11:17:35;5.27;;;3.30;;
54143;SDS011;40050;47.324;18.792;2023-04-24T11:19:42;5.76;;;3.40;;
54143;SDS011;40050;47.324;18.792;2023-04-24T11:21:42;5.37;;;3.00;;
54143;SDS011;40050;47.324;18.792;2023-04-24T11:23:44;4.58;;;2.80;;
54143;SDS011;40050;47.324;18.792;2023-04-24T11:25:52;5.47;;;3.40;;
54143;SDS011;40050;47.324;18.792;2023-04-24T11:27:49;7.17;;;3.30;;
54143;SDS011;40050;47.324;18.792;2023-04-24T11:30:00;5.87;;;3.50;;
54143;SDS011;40050;47.324;18.792;2023-04-24T11:34:13;4.78;;;2.80;;
54143;SDS011;40050;47.324;18.792;2023-04-24T11:36:14;5.37;;;2.80;;
54143;SDS011;40050;47.324;18.792;2023-04-24T11:38:17;4.98;;;2.80;;
54143;SDS011;40050;47.324;18.792;2023-04-24T11:40:18;4.88;;;3.00;;
54143;SDS011;40050;47.324;18.792;2023-04-24T11:42:18;4.38;;;2.90;;
54143;SDS011;40050;47.324;18.792;2023-04-24T11:44:28;5.08;;;2.80;;
54143;SDS011;40050;47.324;18.792;2023-04-24T11:49:21;4.98;;;2.80;;
54143;SDS011;40050;47.324;18.792;2023-04-24T11:55:38;6.57;;;3.10;;
54143;SDS011;40050;47.324;18.792;2023-04-24T11:57:46;7.87;;;3.00;;
54143;SDS011;40050;47.324;18.792;2023-04-24T12:00:21;6.27;;;3.00;;
54143;SDS011;40050;47.324;18.792;2023-04-24T12:02:06;5.77;;;3.20;;